sensor_id;sensor_type;location;lat;lon;timestamp;temperature;humidity
52543;DHT22;38449;52.696;6.186;2023-06-22T00:00:58;19.20;99.90
52543;DHT22;38449;52.696;6.186;2023-06-22T00:03:25;19.10;99.90
52543;DHT22;38449;52.696;6.186;2023-06-22T00:05:52;19.20;99.90
52543;DHT22;38449;52.696;6.186;2023-06-22T00:08:19;19.10;99.90
52543;DHT22;38449;52.696;6.186;2023-06-22T00:10:46;19.10;99.90
52543;DHT22;38449;52.696;6.186;2023-06-22T00:13:13;19.00;99.90
52543;DHT22;38449;52.696;6.186;2023-06-22T00:15:41;19.00;99.90
52543;DHT22;38449;52.696;6.186;2023-06-22T00:18:09;19.00;99.90
52543;DHT22;38449;52.696;6.186;2023-06-22T00:20:37;19.00;99.90
52543;DHT22;38449;52.696;6.186;2023-06-22T00:23:06;19.00;99.90
52543;DHT22;38449;52.696;6.186;2023-06-22T00:25:38;19.00;99.90
52543;DHT22;38449;52.696;6.186;2023-06-22T00:28:08;19.00;99.90
52543;DHT22;38449;52.696;6.186;2023-06-22T00:30:36;19.00;99.90
52543;DHT22;38449;52.696;6.186;2023-06-22T00:33:02;19.00;99.90
52543;DHT22;38449;52.696;6.186;2023-06-22T00:35:29;19.00;99.90
52543;DHT22;38449;52.696;6.186;2023-06-22T00:37:56;19.00;99.90
52543;DHT22;38449;52.696;6.186;2023-06-22T00:40:32;19.00;99.90
52543;DHT22;38449;52.696;6.186;2023-06-22T00:42:59;19.00;99.90
52543;DHT22;38449;52.696;6.186;2023-06-22T00:45:26;19.00;99.90
52543;DHT22;38449;52.696;6.186;2023-06-22T00:47:53;19.00;99.90
52543;DHT22;38449;52.696;6.186;2023-06-22T00:50:21;19.00;99.90
52543;DHT22;38449;52.696;6.186;2023-06-22T00:52:58;19.00;99.90
52543;DHT22;38449;52.696;6.186;2023-06-22T00:55:25;19.10;99.90
52543;DHT22;38449;52.696;6.186;2023-06-22T00:57:54;19.00;99.90
52543;DHT22;38449;52.696;6.186;2023-06-22T01:00:23;19.00;99.90
52543;DHT22;38449;52.696;6.186;2023-06-22T01:02:51;18.90;99.90
52543;DHT22;38449;52.696;6.186;2023-06-22T01:05:19;18.90;99.90
52543;DHT22;38449;52.696;6.186;2023-06-22T01:10:25;18.80;99.90
52543;DHT22;38449;52.696;6.186;2023-06-22T01:12:59;18.80;99.90
52543;DHT22;38449;52.696;6.186;2023-06-22T01:15:39;18.80;99.90
52543;DHT22;38449;52.696;6.186;2023-06-22T01:18:08;18.70;99.90
52543;DHT22;38449;52.696;6.186;2023-06-22T01:20:35;18.70;99.90
52543;DHT22;38449;52.696;6.186;2023-06-22T01:25:46;18.60;99.90
52543;DHT22;38449;52.696;6.186;2023-06-22T01:28:24;18.60;99.90
52543;DHT22;38449;52.696;6.186;2023-06-22T01:30:53;18.60;99.90
52543;DHT22;38449;52.696;6.186;2023-06-22T01:33:36;18.60;99.90
52543;DHT22;38449;52.696;6.186;2023-06-22T01:36:03;18.60;99.90
52543;DHT22;38449;52.696;6.186;2023-06-22T01:38:32;18.50;99.90
52543;DHT22;38449;52.696;6.186;2023-06-22T01:40:59;18.60;99.90
52543;DHT22;38449;52.696;6.186;2023-06-22T01:43:27;18.50;99.90
52543;DHT22;38449;52.696;6.186;2023-06-22T01:45:54;18.40;99.90
52543;DHT22;38449;52.696;6.186;2023-06-22T01:48:21;18.40;99.90
52543;DHT22;38449;52.696;6.186;2023-06-22T01:50:48;18.40;99.90
52543;DHT22;38449;52.696;6.186;2023-06-22T01:53:15;18.30;99.90
52543;DHT22;38449;52.696;6.186;2023-06-22T01:55:41;18.40;99.90
52543;DHT22;38449;52.696;6.186;2023-06-22T01:58:07;18.30;99.90
52543;DHT22;38449;52.696;6.186;2023-06-22T02:00:37;18.20;99.90
52543;DHT22;38449;52.696;6.186;2023-06-22T02:03:14;18.20;99.90
52543;DHT22;38449;52.696;6.186;2023-06-22T02:05:48;18.10;99.90
52543;DHT22;38449;52.696;6.186;2023-06-22T02:08:24;18.10;99.90
52543;DHT22;38449;52.696;6.186;2023-06-22T02:10:52;18.20;99.90
52543;DHT22;38449;52.696;6.186;2023-06-22T02:13:20;18.10;99.90
52543;DHT22;38449;52.696;6.186;2023-06-22T02:15:47;18.00;99.90
52543;DHT22;38449;52.696;6.186;2023-06-22T02:18:14;18.00;99.90
52543;DHT22;38449;52.696;6.186;2023-06-22T02:20:40;18.00;99.90
52543;DHT22;38449;52.696;6.186;2023-06-22T02:23:07;18.10;99.90
52543;DHT22;38449;52.696;6.186;2023-06-22T02:25:34;18.00;99.90
52543;DHT22;38449;52.696;6.186;2023-06-22T02:28:01;18.00;99.90
52543;DHT22;38449;52.696;6.186;2023-06-22T02:30:27;18.00;99.90
52543;DHT22;38449;52.696;6.186;2023-06-22T02:32:53;18.00;99.90
52543;DHT22;38449;52.696;6.186;2023-06-22T02:35:26;18.00;99.90
52543;DHT22;38449;52.696;6.186;2023-06-22T02:37:52;17.90;99.90
52543;DHT22;38449;52.696;6.186;2023-06-22T02:40:18;17.90;99.90
52543;DHT22;38449;52.696;6.186;2023-06-22T02:42:45;18.00;99.90
52543;DHT22;38449;52.696;6.186;2023-06-22T02:45:11;18.00;99.90
52543;DHT22;38449;52.696;6.186;2023-06-22T02:47:37;17.90;99.90
52543;DHT22;38449;52.696;6.186;2023-06-22T02:50:04;17.90;99.90
52543;DHT22;38449;52.696;6.186;2023-06-22T02:52:30;17.80;99.90
52543;DHT22;38449;52.696;6.186;2023-06-22T02:54:56;17.80;99.90
52543;DHT22;38449;52.696;6.186;2023-06-22T02:57:22;17.80;99.90
52543;DHT22;38449;52.696;6.186;2023-06-22T02:59:49;17.80;99.90
52543;DHT22;38449;52.696;6.186;2023-06-22T03:02:15;17.70;99.90
52543;DHT22;38449;52.696;6.186;2023-06-22T03:04:41;17.80;99.90
52543;DHT22;38449;52.696;6.186;2023-06-22T03:07:08;17.70;99.90
52543;DHT22;38449;52.696;6.186;2023-06-22T03:09:34;17.70;99.90
52543;DHT22;38449;52.696;6.186;2023-06-22T03:12:01;17.70;99.90
52543;DHT22;38449;52.696;6.186;2023-06-22T03:14:28;17.70;99.90
52543;DHT22;38449;52.696;6.186;2023-06-22T03:16:54;17.60;99.90
52543;DHT22;38449;52.696;6.186;2023-06-22T03:19:20;17.60;99.90
52543;DHT22;38449;52.696;6.186;2023-06-22T03:21:47;17.60;99.90
52543;DHT22;38449;52.696;6.186;2023-06-22T03:24:13;17.60;99.90
52543;DHT22;38449;52.696;6.186;2023-06-22T03:26:40;17.60;99.90
52543;DHT22;38449;52.696;6.186;2023-06-22T03:29:06;17.50;99.90
52543;DHT22;38449;52.696;6.186;2023-06-22T03:31:32;17.50;99.90
52543;DHT22;38449;52.696;6.186;2023-06-22T03:33:58;17.50;99.90
52543;DHT22;38449;52.696;6.186;2023-06-22T03:36:25;17.50;99.90
52543;DHT22;38449;52.696;6.186;2023-06-22T03:38:51;17.50;99.90
52543;DHT22;38449;52.696;6.186;2023-06-22T03:41:17;17.40;99.90
52543;DHT22;38449;52.696;6.186;2023-06-22T03:43:44;17.50;99.90
52543;DHT22;38449;52.696;6.186;2023-06-22T03:46:10;17.40;99.90
52543;DHT22;38449;52.696;6.186;2023-06-22T03:48:36;17.40;99.90
52543;DHT22;38449;52.696;6.186;2023-06-22T03:51:03;17.30;99.90
52543;DHT22;38449;52.696;6.186;2023-06-22T03:53:29;17.40;99.90
52543;DHT22;38449;52.696;6.186;2023-06-22T03:55:55;17.40;99.90
52543;DHT22;38449;52.696;6.186;2023-06-22T03:58:22;17.40;99.90
52543;DHT22;38449;52.696;6.186;2023-06-22T04:00:49;17.50;99.90
52543;DHT22;38449;52.696;6.186;2023-06-22T04:03:16;17.40;99.90
52543;DHT22;38449;52.696;6.186;2023-06-22T04:05:45;17.50;99.90
52543;DHT22;38449;52.696;6.186;2023-06-22T04:08:13;17.40;99.90
52543;DHT22;38449;52.696;6.186;2023-06-22T04:10:40;17.40;99.90
52543;DHT22;38449;52.696;6.186;2023-06-22T04:13:06;17.50;99.90
52543;DHT22;38449;52.696;6.186;2023-06-22T04:15:32;17.50;99.90
52543;DHT22;38449;52.696;6.186;2023-06-22T04:17:59;17.60;99.90
52543;DHT22;38449;52.696;6.186;2023-06-22T04:20:25;17.60;99.90
52543;DHT22;38449;52.696;6.186;2023-06-22T04:22:54;17.60;99.90
52543;DHT22;38449;52.696;6.186;2023-06-22T04:25:23;17.70;99.90
52543;DHT22;38449;52.696;6.186;2023-06-22T04:27:49;17.70;99.90
52543;DHT22;38449;52.696;6.186;2023-06-22T04:30:15;17.60;99.90
52543;DHT22;38449;52.696;6.186;2023-06-22T04:32:43;17.60;99.90
52543;DHT22;38449;52.696;6.186;2023-06-22T04:35:11;17.70;99.90
52543;DHT22;38449;52.696;6.186;2023-06-22T04:37:38;17.80;99.90
52543;DHT22;38449;52.696;6.186;2023-06-22T04:40:05;17.80;99.90
52543;DHT22;38449;52.696;6.186;2023-06-22T04:42:34;17.80;99.90
52543;DHT22;38449;52.696;6.186;2023-06-22T04:45:00;17.90;99.90
52543;DHT22;38449;52.696;6.186;2023-06-22T04:47:27;17.90;99.90
52543;DHT22;38449;52.696;6.186;2023-06-22T04:49:53;17.90;99.90
52543;DHT22;38449;52.696;6.186;2023-06-22T04:52:19;18.00;99.90
52543;DHT22;38449;52.696;6.186;2023-06-22T04:54:46;18.00;99.90
52543;DHT22;38449;52.696;6.186;2023-06-22T04:57:16;18.20;99.90
52543;DHT22;38449;52.696;6.186;2023-06-22T04:59:42;18.50;99.90
52543;DHT22;38449;52.696;6.186;2023-06-22T05:02:10;19.10;99.90
52543;DHT22;38449;52.696;6.186;2023-06-22T05:04:36;19.70;99.90
52543;DHT22;38449;52.696;6.186;2023-06-22T05:07:04;20.20;99.90
52543;DHT22;38449;52.696;6.186;2023-06-22T05:09:30;20.80;99.90
52543;DHT22;38449;52.696;6.186;2023-06-22T05:11:57;21.40;99.90
52543;DHT22;38449;52.696;6.186;2023-06-22T05:14:23;21.70;99.90
52543;DHT22;38449;52.696;6.186;2023-06-22T05:16:50;21.80;99.90
52543;DHT22;38449;52.696;6.186;2023-06-22T05:19:18;22.00;99.90
52543;DHT22;38449;52.696;6.186;2023-06-22T05:21:44;22.20;99.90
52543;DHT22;38449;52.696;6.186;2023-06-22T05:24:10;22.70;99.90
52543;DHT22;38449;52.696;6.186;2023-06-22T05:26:36;23.00;99.90
52543;DHT22;38449;52.696;6.186;2023-06-22T05:29:03;23.20;99.90
52543;DHT22;38449;52.696;6.186;2023-06-22T05:31:30;23.40;99.90
52543;DHT22;38449;52.696;6.186;2023-06-22T05:33:56;23.60;99.90
52543;DHT22;38449;52.696;6.186;2023-06-22T05:36:22;23.80;99.90
52543;DHT22;38449;52.696;6.186;2023-06-22T05:38:56;24.20;99.90
52543;DHT22;38449;52.696;6.186;2023-06-22T05:41:22;24.20;99.90
52543;DHT22;38449;52.696;6.186;2023-06-22T05:43:49;24.30;99.90
52543;DHT22;38449;52.696;6.186;2023-06-22T05:46:15;24.10;99.90
52543;DHT22;38449;52.696;6.186;2023-06-22T05:48:42;23.90;99.90
52543;DHT22;38449;52.696;6.186;2023-06-22T05:51:08;23.60;99.90
52543;DHT22;38449;52.696;6.186;2023-06-22T05:53:34;23.40;99.90
52543;DHT22;38449;52.696;6.186;2023-06-22T05:56:00;23.50;99.90
52543;DHT22;38449;52.696;6.186;2023-06-22T05:58:27;23.80;99.90
52543;DHT22;38449;52.696;6.186;2023-06-22T06:00:55;23.70;99.90
52543;DHT22;38449;52.696;6.186;2023-06-22T06:03:21;23.90;99.90
52543;DHT22;38449;52.696;6.186;2023-06-22T06:05:47;24.30;99.90
52543;DHT22;38449;52.696;6.186;2023-06-22T06:08:14;24.40;99.90
52543;DHT22;38449;52.696;6.186;2023-06-22T06:10:40;24.50;99.90
52543;DHT22;38449;52.696;6.186;2023-06-22T06:13:06;24.50;99.90
52543;DHT22;38449;52.696;6.186;2023-06-22T06:15:34;24.90;99.90
52543;DHT22;38449;52.696;6.186;2023-06-22T06:18:01;25.30;99.90
52543;DHT22;38449;52.696;6.186;2023-06-22T06:20:32;25.60;99.90
52543;DHT22;38449;52.696;6.186;2023-06-22T06:22:58;25.60;99.90
52543;DHT22;38449;52.696;6.186;2023-06-22T06:25:25;25.70;99.90
52543;DHT22;38449;52.696;6.186;2023-06-22T06:27:53;25.80;99.90
52543;DHT22;38449;52.696;6.186;2023-06-22T06:30:22;25.60;99.90
52543;DHT22;38449;52.696;6.186;2023-06-22T06:32:49;25.70;99.90
52543;DHT22;38449;52.696;6.186;2023-06-22T06:35:16;25.90;99.90
52543;DHT22;38449;52.696;6.186;2023-06-22T06:37:46;25.70;99.90
52543;DHT22;38449;52.696;6.186;2023-06-22T06:40:20;25.40;99.90
52543;DHT22;38449;52.696;6.186;2023-06-22T06:42:48;25.10;99.90
52543;DHT22;38449;52.696;6.186;2023-06-22T06:45:21;25.40;99.90
52543;DHT22;38449;52.696;6.186;2023-06-22T06:47:49;25.80;99.90
52543;DHT22;38449;52.696;6.186;2023-06-22T06:50:16;25.80;99.90
52543;DHT22;38449;52.696;6.186;2023-06-22T06:52:43;26.00;99.90
52543;DHT22;38449;52.696;6.186;2023-06-22T06:55:10;25.90;99.90
52543;DHT22;38449;52.696;6.186;2023-06-22T06:57:38;26.00;99.90
52543;DHT22;38449;52.696;6.186;2023-06-22T07:00:08;26.10;99.90
52543;DHT22;38449;52.696;6.186;2023-06-22T07:02:45;26.30;99.90
52543;DHT22;38449;52.696;6.186;2023-06-22T07:05:14;25.80;99.90
52543;DHT22;38449;52.696;6.186;2023-06-22T07:07:40;25.40;99.90
52543;DHT22;38449;52.696;6.186;2023-06-22T07:10:08;25.20;99.90
52543;DHT22;38449;52.696;6.186;2023-06-22T07:12:34;25.00;99.90
52543;DHT22;38449;52.696;6.186;2023-06-22T07:15:05;24.80;99.90
52543;DHT22;38449;52.696;6.186;2023-06-22T07:17:36;24.90;99.90
52543;DHT22;38449;52.696;6.186;2023-06-22T07:20:03;24.90;99.90
52543;DHT22;38449;52.696;6.186;2023-06-22T07:22:36;25.00;99.90
52543;DHT22;38449;52.696;6.186;2023-06-22T07:25:03;25.00;99.90
52543;DHT22;38449;52.696;6.186;2023-06-22T07:27:42;25.30;99.90
52543;DHT22;38449;52.696;6.186;2023-06-22T07:30:10;25.40;99.90
52543;DHT22;38449;52.696;6.186;2023-06-22T07:32:37;25.60;99.90
52543;DHT22;38449;52.696;6.186;2023-06-22T07:35:03;25.30;99.90
52543;DHT22;38449;52.696;6.186;2023-06-22T07:37:30;25.20;99.90
52543;DHT22;38449;52.696;6.186;2023-06-22T07:39:58;25.10;99.90
52543;DHT22;38449;52.696;6.186;2023-06-22T07:42:25;25.20;99.90
52543;DHT22;38449;52.696;6.186;2023-06-22T07:44:52;25.30;99.90
52543;DHT22;38449;52.696;6.186;2023-06-22T07:47:21;25.20;99.90
52543;DHT22;38449;52.696;6.186;2023-06-22T07:49:51;24.90;99.90
52543;DHT22;38449;52.696;6.186;2023-06-22T07:52:18;25.00;99.90
52543;DHT22;38449;52.696;6.186;2023-06-22T07:54:44;24.90;99.90
52543;DHT22;38449;52.696;6.186;2023-06-22T07:57:11;24.90;99.90
52543;DHT22;38449;52.696;6.186;2023-06-22T07:59:37;25.00;99.90
52543;DHT22;38449;52.696;6.186;2023-06-22T08:02:04;25.00;99.90
52543;DHT22;38449;52.696;6.186;2023-06-22T08:04:31;25.20;99.90
52543;DHT22;38449;52.696;6.186;2023-06-22T08:07:05;25.30;99.90
52543;DHT22;38449;52.696;6.186;2023-06-22T08:09:32;25.20;99.90
52543;DHT22;38449;52.696;6.186;2023-06-22T08:12:00;25.30;99.90
52543;DHT22;38449;52.696;6.186;2023-06-22T08:14:26;25.20;99.90
52543;DHT22;38449;52.696;6.186;2023-06-22T08:16:54;25.20;99.90
52543;DHT22;38449;52.696;6.186;2023-06-22T08:19:20;25.40;99.90
52543;DHT22;38449;52.696;6.186;2023-06-22T08:21:47;25.40;99.90
52543;DHT22;38449;52.696;6.186;2023-06-22T08:24:13;25.40;99.90
52543;DHT22;38449;52.696;6.186;2023-06-22T08:26:39;25.40;99.90
52543;DHT22;38449;52.696;6.186;2023-06-22T08:29:05;25.60;99.90
52543;DHT22;38449;52.696;6.186;2023-06-22T08:31:32;25.70;99.90
52543;DHT22;38449;52.696;6.186;2023-06-22T08:34:00;25.80;99.90
52543;DHT22;38449;52.696;6.186;2023-06-22T08:36:26;25.80;99.90
52543;DHT22;38449;52.696;6.186;2023-06-22T08:38:59;25.70;99.90
52543;DHT22;38449;52.696;6.186;2023-06-22T08:41:27;25.70;99.90
52543;DHT22;38449;52.696;6.186;2023-06-22T08:43:53;25.70;99.90
52543;DHT22;38449;52.696;6.186;2023-06-22T08:46:20;25.50;99.90
52543;DHT22;38449;52.696;6.186;2023-06-22T08:48:59;25.60;99.90
52543;DHT22;38449;52.696;6.186;2023-06-22T08:51:26;25.80;99.90
52543;DHT22;38449;52.696;6.186;2023-06-22T08:53:52;25.70;99.90
52543;DHT22;38449;52.696;6.186;2023-06-22T08:56:18;25.70;99.90
52543;DHT22;38449;52.696;6.186;2023-06-22T08:58:45;25.80;99.90
52543;DHT22;38449;52.696;6.186;2023-06-22T09:01:11;25.70;99.90
52543;DHT22;38449;52.696;6.186;2023-06-22T09:03:37;25.80;99.90
52543;DHT22;38449;52.696;6.186;2023-06-22T09:06:04;25.90;99.90
52543;DHT22;38449;52.696;6.186;2023-06-22T09:08:30;25.80;99.90
52543;DHT22;38449;52.696;6.186;2023-06-22T09:10:56;25.90;99.90
52543;DHT22;38449;52.696;6.186;2023-06-22T09:13:22;26.10;99.90
52543;DHT22;38449;52.696;6.186;2023-06-22T09:15:49;26.10;99.90
52543;DHT22;38449;52.696;6.186;2023-06-22T09:18:15;26.20;99.90
52543;DHT22;38449;52.696;6.186;2023-06-22T09:20:45;26.20;99.90
52543;DHT22;38449;52.696;6.186;2023-06-22T09:23:11;26.10;99.90
52543;DHT22;38449;52.696;6.186;2023-06-22T09:25:37;26.10;99.90
52543;DHT22;38449;52.696;6.186;2023-06-22T09:28:03;26.20;99.90
52543;DHT22;38449;52.696;6.186;2023-06-22T09:30:30;26.20;99.90
52543;DHT22;38449;52.696;6.186;2023-06-22T09:32:56;26.20;99.90
52543;DHT22;38449;52.696;6.186;2023-06-22T09:35:22;26.30;99.90
52543;DHT22;38449;52.696;6.186;2023-06-22T09:37:48;26.60;99.90
52543;DHT22;38449;52.696;6.186;2023-06-22T09:40:14;26.80;99.90
52543;DHT22;38449;52.696;6.186;2023-06-22T09:42:42;26.80;99.90
52543;DHT22;38449;52.696;6.186;2023-06-22T09:45:09;26.90;99.90
52543;DHT22;38449;52.696;6.186;2023-06-22T09:47:36;27.00;99.90
52543;DHT22;38449;52.696;6.186;2023-06-22T09:50:02;27.00;99.90
52543;DHT22;38449;52.696;6.186;2023-06-22T09:52:28;27.10;99.90
52543;DHT22;38449;52.696;6.186;2023-06-22T09:54:55;27.00;99.90
52543;DHT22;38449;52.696;6.186;2023-06-22T09:57:21;27.00;99.90
52543;DHT22;38449;52.696;6.186;2023-06-22T09:59:47;27.20;99.90
52543;DHT22;38449;52.696;6.186;2023-06-22T10:02:13;27.20;99.90
52543;DHT22;38449;52.696;6.186;2023-06-22T10:04:41;27.40;99.90
52543;DHT22;38449;52.696;6.186;2023-06-22T10:07:07;27.40;99.90
52543;DHT22;38449;52.696;6.186;2023-06-22T10:09:33;27.20;99.90
52543;DHT22;38449;52.696;6.186;2023-06-22T10:12:00;27.30;99.90
52543;DHT22;38449;52.696;6.186;2023-06-22T10:14:26;27.20;99.90
52543;DHT22;38449;52.696;6.186;2023-06-22T10:16:54;27.30;99.90
52543;DHT22;38449;52.696;6.186;2023-06-22T10:19:21;27.40;99.90
52543;DHT22;38449;52.696;6.186;2023-06-22T10:21:47;27.50;99.90
52543;DHT22;38449;52.696;6.186;2023-06-22T10:24:13;27.50;99.90
52543;DHT22;38449;52.696;6.186;2023-06-22T10:26:39;27.60;99.70
52543;DHT22;38449;52.696;6.186;2023-06-22T10:29:06;27.60;99.80
52543;DHT22;38449;52.696;6.186;2023-06-22T10:31:32;27.80;99.40
52543;DHT22;38449;52.696;6.186;2023-06-22T10:33:58;27.80;99.30
52543;DHT22;38449;52.696;6.186;2023-06-22T10:36:24;27.80;99.30
52543;DHT22;38449;52.696;6.186;2023-06-22T10:38:50;27.70;99.00
52543;DHT22;38449;52.696;6.186;2023-06-22T10:41:18;27.80;98.60
52543;DHT22;38449;52.696;6.186;2023-06-22T10:43:47;27.80;98.60
52543;DHT22;38449;52.696;6.186;2023-06-22T10:46:13;27.60;98.30
52543;DHT22;38449;52.696;6.186;2023-06-22T10:48:40;27.60;98.40
52543;DHT22;38449;52.696;6.186;2023-06-22T10:51:06;27.60;98.70
52543;DHT22;38449;52.696;6.186;2023-06-22T10:53:32;27.70;98.80
52543;DHT22;38449;52.696;6.186;2023-06-22T10:55:58;27.90;99.00
52543;DHT22;38449;52.696;6.186;2023-06-22T10:58:27;27.90;98.90
52543;DHT22;38449;52.696;6.186;2023-06-22T11:00:53;27.70;98.70
52543;DHT22;38449;52.696;6.186;2023-06-22T11:03:19;27.80;98.50
52543;DHT22;38449;52.696;6.186;2023-06-22T11:05:45;27.60;98.30
52543;DHT22;38449;52.696;6.186;2023-06-22T11:08:13;27.70;98.70
52543;DHT22;38449;52.696;6.186;2023-06-22T11:10:40;27.60;98.70
52543;DHT22;38449;52.696;6.186;2023-06-22T11:13:06;27.60;98.90
52543;DHT22;38449;52.696;6.186;2023-06-22T11:15:36;27.70;98.80
52543;DHT22;38449;52.696;6.186;2023-06-22T11:18:02;27.80;98.80
52543;DHT22;38449;52.696;6.186;2023-06-22T11:20:31;27.90;98.70
52543;DHT22;38449;52.696;6.186;2023-06-22T11:23:00;28.00;98.80
52543;DHT22;38449;52.696;6.186;2023-06-22T11:25:26;27.90;98.50
52543;DHT22;38449;52.696;6.186;2023-06-22T11:27:52;27.90;98.50
52543;DHT22;38449;52.696;6.186;2023-06-22T11:30:19;27.70;98.50
52543;DHT22;38449;52.696;6.186;2023-06-22T11:32:46;27.60;98.20
52543;DHT22;38449;52.696;6.186;2023-06-22T11:35:12;27.50;98.50
52543;DHT22;38449;52.696;6.186;2023-06-22T11:37:38;27.40;98.80
52543;DHT22;38449;52.696;6.186;2023-06-22T11:40:05;27.40;99.00
52543;DHT22;38449;52.696;6.186;2023-06-22T11:42:35;27.40;99.10
52543;DHT22;38449;52.696;6.186;2023-06-22T11:45:01;27.40;98.90
52543;DHT22;38449;52.696;6.186;2023-06-22T11:47:29;27.50;98.90
52543;DHT22;38449;52.696;6.186;2023-06-22T11:49:55;27.50;99.00
52543;DHT22;38449;52.696;6.186;2023-06-22T11:52:21;27.50;99.10
52543;DHT22;38449;52.696;6.186;2023-06-22T11:54:48;27.40;98.90
52543;DHT22;38449;52.696;6.186;2023-06-22T11:57:14;27.30;98.90
52543;DHT22;38449;52.696;6.186;2023-06-22T11:59:40;27.20;98.70
52543;DHT22;38449;52.696;6.186;2023-06-22T12:02:06;27.30;98.70
52543;DHT22;38449;52.696;6.186;2023-06-22T12:04:33;27.40;98.80
52543;DHT22;38449;52.696;6.186;2023-06-22T12:06:59;27.40;98.90
52543;DHT22;38449;52.696;6.186;2023-06-22T12:09:26;27.40;98.80
52543;DHT22;38449;52.696;6.186;2023-06-22T12:11:52;27.20;98.60
52543;DHT22;38449;52.696;6.186;2023-06-22T12:14:18;27.20;98.70
52543;DHT22;38449;52.696;6.186;2023-06-22T12:16:44;27.30;99.00
52543;DHT22;38449;52.696;6.186;2023-06-22T12:19:11;27.20;98.90
52543;DHT22;38449;52.696;6.186;2023-06-22T12:21:37;27.10;98.70
52543;DHT22;38449;52.696;6.186;2023-06-22T12:24:05;27.00;98.60
52543;DHT22;38449;52.696;6.186;2023-06-22T12:26:31;27.00;98.80
52543;DHT22;38449;52.696;6.186;2023-06-22T12:28:57;27.00;98.80
52543;DHT22;38449;52.696;6.186;2023-06-22T12:31:24;27.10;98.60
52543;DHT22;38449;52.696;6.186;2023-06-22T12:33:50;27.10;98.60
52543;DHT22;38449;52.696;6.186;2023-06-22T12:36:16;27.10;98.60
52543;DHT22;38449;52.696;6.186;2023-06-22T12:38:42;27.10;98.50
52543;DHT22;38449;52.696;6.186;2023-06-22T12:41:08;27.00;98.40
52543;DHT22;38449;52.696;6.186;2023-06-22T12:43:35;27.00;98.10
52543;DHT22;38449;52.696;6.186;2023-06-22T12:46:01;27.00;98.00
52543;DHT22;38449;52.696;6.186;2023-06-22T12:48:27;27.00;97.80
52543;DHT22;38449;52.696;6.186;2023-06-22T12:50:54;26.90;97.90
52543;DHT22;38449;52.696;6.186;2023-06-22T12:53:20;26.90;98.10
52543;DHT22;38449;52.696;6.186;2023-06-22T12:55:48;26.90;98.30
52543;DHT22;38449;52.696;6.186;2023-06-22T12:58:14;26.80;98.30
52543;DHT22;38449;52.696;6.186;2023-06-22T13:00:41;26.80;98.40
52543;DHT22;38449;52.696;6.186;2023-06-22T13:03:07;26.80;98.30
52543;DHT22;38449;52.696;6.186;2023-06-22T13:05:33;26.60;98.30
52543;DHT22;38449;52.696;6.186;2023-06-22T13:08:01;26.50;98.60
52543;DHT22;38449;52.696;6.186;2023-06-22T13:10:27;26.40;98.80
52543;DHT22;38449;52.696;6.186;2023-06-22T13:12:53;26.40;98.70
52543;DHT22;38449;52.696;6.186;2023-06-22T13:15:28;26.30;98.80
52543;DHT22;38449;52.696;6.186;2023-06-22T13:17:55;26.30;99.10
52543;DHT22;38449;52.696;6.186;2023-06-22T13:20:21;26.20;99.30
52543;DHT22;38449;52.696;6.186;2023-06-22T13:22:47;26.20;99.90
52543;DHT22;38449;52.696;6.186;2023-06-22T13:25:14;26.10;99.90
52543;DHT22;38449;52.696;6.186;2023-06-22T13:27:45;26.00;99.90
52543;DHT22;38449;52.696;6.186;2023-06-22T13:30:11;25.80;99.90
52543;DHT22;38449;52.696;6.186;2023-06-22T13:32:37;25.70;99.90
52543;DHT22;38449;52.696;6.186;2023-06-22T13:35:05;25.60;99.90
52543;DHT22;38449;52.696;6.186;2023-06-22T13:37:31;25.50;99.90
52543;DHT22;38449;52.696;6.186;2023-06-22T13:39:57;25.50;99.90
52543;DHT22;38449;52.696;6.186;2023-06-22T13:42:25;25.50;99.90
52543;DHT22;38449;52.696;6.186;2023-06-22T13:44:51;25.40;99.90
52543;DHT22;38449;52.696;6.186;2023-06-22T13:47:18;25.40;99.90
52543;DHT22;38449;52.696;6.186;2023-06-22T13:49:44;25.40;99.90
52543;DHT22;38449;52.696;6.186;2023-06-22T13:52:10;25.40;99.90
52543;DHT22;38449;52.696;6.186;2023-06-22T13:54:41;25.40;99.90
52543;DHT22;38449;52.696;6.186;2023-06-22T13:57:07;25.30;99.90
52543;DHT22;38449;52.696;6.186;2023-06-22T13:59:33;25.30;99.90
52543;DHT22;38449;52.696;6.186;2023-06-22T14:01:59;25.20;99.90
52543;DHT22;38449;52.696;6.186;2023-06-22T14:04:26;25.20;99.90
52543;DHT22;38449;52.696;6.186;2023-06-22T14:06:52;25.10;99.90
52543;DHT22;38449;52.696;6.186;2023-06-22T14:09:19;25.00;99.90
52543;DHT22;38449;52.696;6.186;2023-06-22T14:11:45;25.00;99.90
52543;DHT22;38449;52.696;6.186;2023-06-22T14:14:11;24.90;99.90
52543;DHT22;38449;52.696;6.186;2023-06-22T14:16:37;24.90;99.90
52543;DHT22;38449;52.696;6.186;2023-06-22T14:19:03;24.80;99.90
52543;DHT22;38449;52.696;6.186;2023-06-22T14:21:30;24.70;99.90
52543;DHT22;38449;52.696;6.186;2023-06-22T14:23:56;24.60;99.90
52543;DHT22;38449;52.696;6.186;2023-06-22T14:26:22;24.50;99.90
52543;DHT22;38449;52.696;6.186;2023-06-22T14:28:49;24.40;99.90
52543;DHT22;38449;52.696;6.186;2023-06-22T14:31:18;24.40;99.90
52543;DHT22;38449;52.696;6.186;2023-06-22T14:33:49;24.30;99.90
52543;DHT22;38449;52.696;6.186;2023-06-22T14:36:18;24.10;99.90
52543;DHT22;38449;52.696;6.186;2023-06-22T14:38:45;24.10;99.90
52543;DHT22;38449;52.696;6.186;2023-06-22T14:41:12;24.00;99.90
52543;DHT22;38449;52.696;6.186;2023-06-22T14:43:38;23.90;99.90
52543;DHT22;38449;52.696;6.186;2023-06-22T14:46:05;23.90;99.90
52543;DHT22;38449;52.696;6.186;2023-06-22T14:48:31;23.90;99.90
52543;DHT22;38449;52.696;6.186;2023-06-22T14:50:57;23.80;99.90
52543;DHT22;38449;52.696;6.186;2023-06-22T14:53:23;23.80;99.90
52543;DHT22;38449;52.696;6.186;2023-06-22T14:55:50;23.80;99.90
52543;DHT22;38449;52.696;6.186;2023-06-22T14:58:16;23.80;99.90
52543;DHT22;38449;52.696;6.186;2023-06-22T15:00:42;23.70;99.90
52543;DHT22;38449;52.696;6.186;2023-06-22T15:03:08;23.70;99.90
52543;DHT22;38449;52.696;6.186;2023-06-22T15:05:37;23.80;99.90
52543;DHT22;38449;52.696;6.186;2023-06-22T15:08:03;23.80;99.90
52543;DHT22;38449;52.696;6.186;2023-06-22T15:10:29;23.80;99.90
52543;DHT22;38449;52.696;6.186;2023-06-22T15:12:56;23.70;99.90
52543;DHT22;38449;52.696;6.186;2023-06-22T15:15:22;23.70;99.90
52543;DHT22;38449;52.696;6.186;2023-06-22T15:17:48;23.70;99.90
52543;DHT22;38449;52.696;6.186;2023-06-22T15:20:14;23.70;99.90
52543;DHT22;38449;52.696;6.186;2023-06-22T15:22:41;23.60;99.90
52543;DHT22;38449;52.696;6.186;2023-06-22T15:25:07;23.50;99.90
52543;DHT22;38449;52.696;6.186;2023-06-22T15:27:33;23.50;99.90
52543;DHT22;38449;52.696;6.186;2023-06-22T15:29:59;23.40;99.90
52543;DHT22;38449;52.696;6.186;2023-06-22T15:32:26;23.30;99.90
52543;DHT22;38449;52.696;6.186;2023-06-22T15:34:52;23.20;99.90